Time,TemperatureF,DewpointF,PressureIn,WindDirection,WindDirectionDegrees,WindSpeedMPH,WindSpeedGustMPH,Humidity,HourlyPrecipIn,Conditions,Clouds,dailyrainin,SoftwareType,DateUTC
2013-01-22 00:04:00,26.0,13.0,30.08,SSE,160,1.0,14.0,58,0.00,,,0.00,,2013-01-22 05:04:00,
2013-01-22 00:12:00,26.0,13.0,30.08,SSE,160,1.0,14.0,58,0.00,,,0.00,,2013-01-22 05:12:00,
2013-01-22 00:23:00,25.0,13.0,30.07,SSE,151,7.0,19.0,59,0.00,,,0.00,,2013-01-22 05:23:00,
2013-01-22 00:33:00,25.0,13.0,30.07,SSE,151,7.0,19.0,59,0.00,,,0.00,,2013-01-22 05:33:00,
2013-01-22 00:43:00,25.0,13.0,30.07,SE,131,4.0,14.0,59,0.00,,,0.00,,2013-01-22 05:43:00,
2013-01-22 00:52:00,25.0,13.0,30.07,SSE,167,5.0,17.0,61,0.00,,,0.00,,2013-01-22 05:52:00,
2013-01-22 01:02:00,25.0,13.0,30.07,SSE,167,5.0,17.0,61,0.00,,,0.00,,2013-01-22 06:02:00,
2013-01-22 01:12:00,25.0,13.0,30.07,SSE,167,5.0,17.0,61,0.00,,,0.00,,2013-01-22 06:12:00,
2013-01-22 01:22:00,24.0,12.0,30.07,SE,129,3.0,15.0,59,0.00,,,0.00,,2013-01-22 06:22:00,
2013-01-22 01:33:00,23.0,11.0,30.07,South,175,5.0,10.0,59,0.00,,,0.00,,2013-01-22 06:33:00,
2013-01-22 01:43:00,23.0,11.0,30.07,South,175,5.0,10.0,59,0.00,,,0.00,,2013-01-22 06:43:00,
2013-01-22 01:52:00,23.0,10.0,30.06,NW,309,2.0,9.0,58,0.00,,,0.00,,2013-01-22 06:52:00,
2013-01-22 02:02:00,23.0,10.0,30.07,East,95,3.0,15.0,56,0.00,,,0.00,,2013-01-22 07:02:00,
2013-01-22 02:12:00,23.0,10.0,30.07,East,95,3.0,15.0,56,0.00,,,0.00,,2013-01-22 07:12:00,
2013-01-22 02:22:00,23.0,10.0,30.07,SE,135,3.0,12.0,57,0.00,,,0.00,,2013-01-22 07:22:00,
2013-01-22 02:33:00,22.0,10.0,30.07,ESE,116,2.0,11.0,58,0.00,,,0.00,,2013-01-22 07:33:00,
2013-01-22 02:42:00,22.0,10.0,30.07,ESE,116,2.0,11.0,58,0.00,,,0.00,,2013-01-22 07:42:00,
2013-01-22 02:52:00,22.0,9.0,30.08,SSE,157,3.0,12.0,57,0.00,,,0.00,,2013-01-22 07:52:00,
2013-01-22 03:02:00,22.0,9.0,30.08,SSW,204,3.0,10.0,57,0.00,,,0.00,,2013-01-22 08:02:00,
2013-01-22 03:12:00,22.0,9.0,30.08,SSW,204,3.0,10.0,57,0.00,,,0.00,,2013-01-22 08:12:00,
2013-01-22 03:22:00,21.0,7.0,30.09,SE,139,0.0,8.0,54,0.00,,,0.00,,2013-01-22 08:22:00,
2013-01-22 03:32:00,21.0,7.0,30.10,East,101,4.0,8.0,55,0.00,,,0.00,,2013-01-22 08:32:00,
2013-01-22 03:43:00,21.0,7.0,30.10,East,101,4.0,8.0,55,0.00,,,0.00,,2013-01-22 08:43:00,
2013-01-22 03:52:00,21.0,8.0,30.10,East,97,1.0,5.0,56,0.00,,,0.00,,2013-01-22 08:52:00,
2013-01-22 04:02:00,20.0,8.0,30.10,ESE,107,2.0,10.0,58,0.00,,,0.00,,2013-01-22 09:02:00,
2013-01-22 04:12:00,20.0,8.0,30.10,ESE,107,2.0,10.0,58,0.00,,,0.00,,2013-01-22 09:12:00,
2013-01-22 04:22:00,20.0,9.0,30.11,SSE,149,1.0,8.0,61,0.00,,,0.00,,2013-01-22 09:22:00,
2013-01-22 04:33:00,19.0,8.0,30.11,South,180,2.0,10.0,62,0.00,,,0.00,,2013-01-22 09:33:00,
2013-01-22 04:43:00,19.0,8.0,30.11,South,180,2.0,10.0,62,0.00,,,0.00,,2013-01-22 09:43:00,
2013-01-22 04:52:00,19.0,8.0,30.11,South,180,2.0,10.0,62,0.00,,,0.00,,2013-01-22 09:52:00,
2013-01-22 05:03:00,19.0,9.0,30.11,SSE,167,4.0,16.0,63,0.00,,,0.00,,2013-01-22 10:03:00,
2013-01-22 05:12:00,19.0,9.0,30.11,SSE,167,4.0,16.0,63,0.00,,,0.00,,2013-01-22 10:12:00,
2013-01-22 05:22:00,19.0,9.0,30.12,ENE,73,2.0,8.0,63,0.00,,,0.00,,2013-01-22 10:22:00,
2013-01-22 05:33:00,18.0,7.0,30.12,East,84,1.0,6.0,61,0.00,,,0.00,,2013-01-22 10:33:00,
2013-01-22 05:42:00,18.0,7.0,30.12,East,84,1.0,6.0,61,0.00,,,0.00,,2013-01-22 10:42:00,
2013-01-22 05:52:00,18.0,6.0,30.12,ENE,76,5.0,21.0,58,0.00,,,0.00,,2013-01-22 10:52:00,
2013-01-22 06:02:00,18.0,6.0,30.13,East,93,3.0,13.0,58,0.00,,,0.00,,2013-01-22 11:02:00,
2013-01-22 06:12:00,18.0,6.0,30.13,East,93,3.0,13.0,58,0.00,,,0.00,,2013-01-22 11:12:00,
2013-01-22 06:23:00,18.0,5.0,30.14,SSE,149,2.0,14.0,57,0.00,,,0.00,,2013-01-22 11:23:00,
2013-01-22 06:33:00,17.0,5.0,30.14,SSE,162,2.0,10.0,59,0.00,,,0.00,,2013-01-22 11:33:00,
2013-01-22 06:43:00,17.0,5.0,30.14,SSE,162,2.0,10.0,59,0.00,,,0.00,,2013-01-22 11:43:00,
2013-01-22 06:53:00,17.0,5.0,30.15,SSE,157,3.0,10.0,58,0.00,,,0.00,,2013-01-22 11:53:00,
2013-01-22 07:04:00,17.0,5.0,30.15,SSE,157,3.0,10.0,58,0.00,,,0.00,,2013-01-22 12:04:00,
2013-01-22 07:13:00,17.0,5.0,30.15,SSE,157,3.0,10.0,58,0.00,,,0.00,,2013-01-22 12:13:00,
2013-01-22 07:23:00,17.0,6.0,30.16,SE,139,3.0,9.0,60,0.00,,,0.00,,2013-01-22 12:23:00,
2013-01-22 07:33:00,17.0,6.0,30.16,SE,139,3.0,9.0,60,0.00,,,0.00,,2013-01-22 12:33:00,
2013-01-22 07:43:00,17.0,5.0,30.16,SSW,192,5.0,12.0,59,0.00,,,0.00,,2013-01-22 12:43:00,
2013-01-22 07:52:00,16.0,5.0,30.16,SSE,168,3.0,10.0,60,0.00,,,0.00,,2013-01-22 12:52:00,
2013-01-22 08:04:00,16.0,5.0,30.18,SE,135,1.0,10.0,60,0.00,,,0.00,,2013-01-22 13:04:00,
2013-01-22 08:14:00,16.0,5.0,30.18,SE,135,1.0,10.0,60,0.00,,,0.00,,2013-01-22 13:14:00,
2013-01-22 08:23:00,16.0,5.0,30.17,South,173,4.0,13.0,61,0.00,,,0.00,,2013-01-22 13:23:00,
2013-01-22 08:33:00,16.0,5.0,30.19,South,169,3.0,19.0,60,0.00,,,0.00,,2013-01-22 13:33:00,
2013-01-22 08:43:00,16.0,5.0,30.19,South,169,3.0,19.0,60,0.00,,,0.00,,2013-01-22 13:43:00,
2013-01-22 08:53:00,16.0,5.0,30.19,SSE,165,1.0,8.0,61,0.00,,,0.00,,2013-01-22 13:53:00,
2013-01-22 09:03:00,16.0,5.0,30.19,East,92,5.0,17.0,60,0.00,,,0.00,,2013-01-22 14:03:00,
2013-01-22 09:13:00,16.0,5.0,30.19,East,92,5.0,17.0,60,0.00,,,0.00,,2013-01-22 14:13:00,
2013-01-22 09:23:00,17.0,6.0,30.20,ESE,102,2.0,19.0,60,0.00,,,0.00,,2013-01-22 14:23:00,
2013-01-22 09:34:00,17.0,5.0,30.21,SE,145,7.0,15.0,59,0.00,,,0.00,,2013-01-22 14:34:00,
2013-01-22 09:44:00,17.0,5.0,30.21,SE,145,7.0,15.0,59,0.00,,,0.00,,2013-01-22 14:44:00,
2013-01-22 09:53:00,18.0,5.0,30.22,ESE,117,5.0,14.0,57,0.00,,,0.00,,2013-01-22 14:53:00,
2013-01-22 10:04:00,19.0,5.0,30.23,East,97,4.0,15.0,54,0.00,,,0.00,,2013-01-22 15:04:00,
2013-01-22 10:13:00,19.0,5.0,30.23,East,97,4.0,15.0,54,0.00,,,0.00,,2013-01-22 15:13:00,
2013-01-22 10:24:00,20.0,5.0,30.24,ENE,69,2.0,15.0,52,0.00,,,0.00,,2013-01-22 15:24:00,
2013-01-22 10:34:00,20.0,3.0,30.25,ENE,76,7.0,23.0,47,0.00,,,0.00,,2013-01-22 15:34:00,
2013-01-22 10:43:00,20.0,3.0,30.25,ENE,76,7.0,23.0,47,0.00,,,0.00,,2013-01-22 15:43:00,
2013-01-22 10:53:00,20.0,2.0,30.25,SW,219,2.0,15.0,45,0.00,,,0.00,,2013-01-22 15:53:00,
2013-01-22 11:04:00,21.0,3.0,30.26,SSW,208,6.0,18.0,44,0.00,,,0.00,,2013-01-22 16:04:00,
2013-01-22 11:13:00,21.0,3.0,30.26,SSW,208,6.0,18.0,44,0.00,,,0.00,,2013-01-22 16:13:00,
2013-01-22 11:24:00,21.0,1.0,30.26,SE,143,5.0,11.0,41,0.00,,,0.00,,2013-01-22 16:24:00,
2013-01-22 11:33:00,22.0,1.0,30.26,SSE,168,10.0,17.0,40,0.00,,,0.00,,2013-01-22 16:33:00,
2013-01-22 11:43:00,22.0,1.0,30.26,SSE,168,10.0,17.0,40,0.00,,,0.00,,2013-01-22 16:43:00,
2013-01-22 11:53:00,22.0,0.0,30.27,NE,46,5.0,14.0,38,0.00,,,0.00,,2013-01-22 16:53:00,
2013-01-22 12:04:00,22.0,-1.0,30.27,WSW,243,1.0,15.0,36,0.00,,,0.00,,2013-01-22 17:04:00,
2013-01-22 12:13:00,22.0,-1.0,30.27,WSW,243,1.0,15.0,36,0.00,,,0.00,,2013-01-22 17:13:00,
2013-01-22 12:23:00,23.0,-1.0,30.27,East,85,2.0,10.0,34,0.00,,,0.00,,2013-01-22 17:23:00,
2013-01-22 12:34:00,23.0,-1.0,30.27,NNE,14,1.0,10.0,35,0.00,,,0.00,,2013-01-22 17:34:00,
2013-01-22 12:44:00,23.0,-1.0,30.27,NNE,14,1.0,10.0,35,0.00,,,0.00,,2013-01-22 17:44:00,
2013-01-22 12:53:00,24.0,-1.0,30.27,SE,126,2.0,15.0,33,0.00,,,0.00,,2013-01-22 17:53:00,
2013-01-22 13:04:00,24.0,-2.0,30.26,East,97,5.0,15.0,31,0.00,,,0.00,,2013-01-22 18:04:00,
2013-01-22 13:13:00,24.0,-2.0,30.26,East,97,5.0,15.0,31,0.00,,,0.00,,2013-01-22 18:13:00,
2013-01-22 13:24:00,24.0,-5.0,30.26,East,95,8.0,16.0,27,0.00,,,0.00,,2013-01-22 18:24:00,
2013-01-22 13:34:00,24.0,-2.0,30.25,SSE,156,5.0,15.0,31,0.00,,,0.00,,2013-01-22 18:34:00,
2013-01-22 13:43:00,24.0,-2.0,30.25,SSE,156,5.0,15.0,31,0.00,,,0.00,,2013-01-22 18:43:00,
2013-01-22 13:53:00,25.0,-2.0,30.25,East,89,2.0,11.0,30,0.00,,,0.00,,2013-01-22 18:53:00,
2013-01-22 14:04:00,25.0,-2.0,30.26,East,92,5.0,15.0,30,0.00,,,0.00,,2013-01-22 19:04:00,
2013-01-22 14:13:00,25.0,-2.0,30.26,East,92,5.0,15.0,30,0.00,,,0.00,,2013-01-22 19:13:00,
2013-01-22 14:24:00,25.0,-2.0,30.26,East,92,5.0,15.0,30,0.00,,,0.00,,2013-01-22 19:24:00,
2013-01-22 14:34:00,26.0,-3.0,30.24,South,181,1.0,8.0,28,0.00,,,0.00,,2013-01-22 19:34:00,
2013-01-22 14:43:00,26.0,-3.0,30.24,South,181,1.0,8.0,28,0.00,,,0.00,,2013-01-22 19:43:00,
2013-01-22 14:54:00,26.0,-3.0,30.24,ENE,60,2.0,8.0,28,0.00,,,0.00,,2013-01-22 19:54:00,
2013-01-22 15:03:00,26.0,-3.0,30.24,ENE,60,3.0,15.0,28,0.00,,,0.00,,2013-01-22 20:03:00,
2013-01-22 15:13:00,26.0,-3.0,30.24,ENE,60,3.0,15.0,28,0.00,,,0.00,,2013-01-22 20:13:00,
2013-01-22 15:23:00,27.0,-4.0,30.24,SW,234,4.0,9.0,25,0.00,,,0.00,,2013-01-22 20:23:00,
2013-01-22 15:33:00,28.0,-2.0,30.24,ESE,108,1.0,6.0,27,0.00,,,0.00,,2013-01-22 20:33:00,
2013-01-22 15:43:00,28.0,-2.0,30.24,ESE,108,1.0,6.0,27,0.00,,,0.00,,2013-01-22 20:43:00,
2013-01-22 15:53:00,27.0,-3.0,30.24,East,91,2.0,10.0,26,0.00,,,0.00,,2013-01-22 20:53:00,
2013-01-22 16:03:00,28.0,-3.0,30.24,East,95,0.0,6.0,25,0.00,,,0.00,,2013-01-22 21:03:00,
2013-01-22 16:13:00,28.0,-3.0,30.24,East,95,0.0,6.0,25,0.00,,,0.00,,2013-01-22 21:13:00,
2013-01-22 16:23:00,28.0,-2.0,30.24,ENE,75,1.0,4.0,27,0.00,,,0.00,,2013-01-22 21:23:00,
2013-01-22 16:33:00,28.0,1.0,30.25,ESE,112,3.0,9.0,30,0.00,,,0.00,,2013-01-22 21:33:00,
2013-01-22 16:43:00,28.0,1.0,30.25,ESE,112,3.0,9.0,30,0.00,,,0.00,,2013-01-22 21:43:00,
2013-01-22 16:53:00,28.0,1.0,30.25,ESE,112,3.0,9.0,30,0.00,,,0.00,,2013-01-22 21:53:00,
2013-01-22 17:03:00,27.0,3.0,30.26,ESE,116,1.0,7.0,35,0.00,,,0.00,,2013-01-22 22:03:00,
2013-01-22 17:13:00,27.0,3.0,30.26,ESE,116,1.0,7.0,35,0.00,,,0.00,,2013-01-22 22:13:00,
2013-01-22 17:23:00,27.0,2.0,30.27,ENE,75,3.0,7.0,34,0.00,,,0.00,,2013-01-22 22:23:00,
2013-01-22 17:33:00,27.0,2.0,30.27,ENE,75,3.0,7.0,34,0.00,,,0.00,,2013-01-22 22:33:00,
2013-01-22 17:43:00,26.0,3.0,30.27,SE,124,2.0,6.0,36,0.00,,,0.00,,2013-01-22 22:43:00,
2013-01-22 17:53:00,26.0,4.0,30.28,East,90,1.0,5.0,38,0.00,,,0.00,,2013-01-22 22:53:00,
2013-01-22 18:03:00,25.0,2.0,30.28,North,349,0.0,4.0,37,0.00,,,0.00,,2013-01-22 23:03:00,
2013-01-22 18:12:00,25.0,2.0,30.28,North,349,0.0,4.0,37,0.00,,,0.00,,2013-01-22 23:12:00,
2013-01-22 18:24:00,25.0,4.0,30.27,ENE,60,0.0,3.0,39,0.00,,,0.00,,2013-01-22 23:24:00,
2013-01-22 18:33:00,24.0,3.0,30.28,South,189,0.0,3.0,40,0.00,,,0.00,,2013-01-22 23:33:00,
2013-01-22 18:43:00,24.0,3.0,30.28,South,189,0.0,3.0,40,0.00,,,0.00,,2013-01-22 23:43:00,
2013-01-22 18:53:00,24.0,3.0,30.27,ESE,104,0.0,3.0,40,0.00,,,0.00,,2013-01-22 23:53:00,
2013-01-22 19:03:00,23.0,4.0,30.28,ESE,104,0.0,1.0,43,0.00,,,0.00,,2013-01-23 00:03:00,
2013-01-22 19:12:00,23.0,4.0,30.28,ESE,104,0.0,1.0,43,0.00,,,0.00,,2013-01-23 00:12:00,
2013-01-22 19:23:00,23.0,3.0,30.28,SSE,157,0.0,3.0,41,0.00,,,0.00,,2013-01-23 00:23:00,
2013-01-22 19:33:00,23.0,3.0,30.29,SE,133,1.0,5.0,41,0.00,,,0.00,,2013-01-23 00:33:00,
2013-01-22 19:43:00,23.0,3.0,30.29,SE,133,1.0,5.0,41,0.00,,,0.00,,2013-01-23 00:43:00,
2013-01-22 19:53:00,22.0,2.0,30.30,South,176,0.0,8.0,42,0.00,,,0.00,,2013-01-23 00:53:00,
2013-01-22 20:03:00,22.0,3.0,30.31,ESE,123,0.0,3.0,44,0.00,,,0.00,,2013-01-23 01:03:00,
2013-01-22 20:13:00,22.0,3.0,30.31,ESE,123,0.0,3.0,44,0.00,,,0.00,,2013-01-23 01:13:00,
2013-01-22 20:23:00,22.0,3.0,30.31,ESE,115,0.0,3.0,44,0.00,,,0.00,,2013-01-23 01:23:00,
2013-01-22 20:33:00,21.0,2.0,30.31,East,92,0.0,2.0,42,0.00,,,0.00,,2013-01-23 01:33:00,
2013-01-22 20:43:00,21.0,2.0,30.31,East,92,0.0,2.0,42,0.00,,,0.00,,2013-01-23 01:43:00,
2013-01-22 20:53:00,21.0,-1.0,30.32,SSE,153,0.0,6.0,37,0.00,,,0.00,,2013-01-23 01:53:00,
2013-01-22 21:03:00,21.0,-2.0,30.31,East,95,2.0,4.0,36,0.00,,,0.00,,2013-01-23 02:03:00,
2013-01-22 21:13:00,21.0,-2.0,30.31,East,95,2.0,4.0,36,0.00,,,0.00,,2013-01-23 02:13:00,
2013-01-22 21:23:00,22.0,-1.0,30.31,East,83,2.0,5.0,35,0.00,,,0.00,,2013-01-23 02:23:00,
2013-01-22 21:33:00,22.0,-1.0,30.32,ESE,107,2.0,6.0,36,0.00,,,0.00,,2013-01-23 02:33:00,
2013-01-22 21:43:00,22.0,-1.0,30.32,ESE,107,2.0,6.0,36,0.00,,,0.00,,2013-01-23 02:43:00,
2013-01-22 21:53:00,22.0,0.0,30.32,ESE,106,3.0,8.0,37,0.00,,,0.00,,2013-01-23 02:53:00,
2013-01-22 22:03:00,22.0,0.0,30.31,ESE,110,0.0,4.0,37,0.00,,,0.00,,2013-01-23 03:03:00,
2013-01-22 22:13:00,22.0,0.0,30.31,ESE,110,0.0,4.0,37,0.00,,,0.00,,2013-01-23 03:13:00,
2013-01-22 22:23:00,22.0,1.0,30.31,East,95,0.0,4.0,39,0.00,,,0.00,,2013-01-23 03:23:00,
2013-01-22 22:33:00,22.0,4.0,30.31,East,95,0.0,1.0,45,0.00,,,0.00,,2013-01-23 03:33:00,
2013-01-22 22:43:00,22.0,4.0,30.31,East,95,0.0,1.0,45,0.00,,,0.00,,2013-01-23 03:43:00,
2013-01-22 22:53:00,22.0,2.0,30.32,East,95,0.0,1.0,42,0.00,,,0.00,,2013-01-23 03:53:00,
2013-01-22 23:03:00,22.0,2.0,30.32,SSE,166,1.0,3.0,42,0.00,,,0.00,,2013-01-23 04:03:00,
2013-01-22 23:13:00,22.0,2.0,30.32,SSE,166,1.0,3.0,42,0.00,,,0.00,,2013-01-23 04:13:00,
2013-01-22 23:23:00,22.0,2.0,30.32,SSE,166,1.0,3.0,42,0.00,,,0.00,,2013-01-23 04:23:00,
2013-01-22 23:33:00,22.0,4.0,30.32,East,89,0.0,4.0,45,0.00,,,0.00,,2013-01-23 04:33:00,
2013-01-22 23:43:00,22.0,4.0,30.32,East,89,0.0,4.0,45,0.00,,,0.00,,2013-01-23 04:43:00,
2013-01-22 23:53:00,22.0,4.0,30.31,WSW,240,0.0,4.0,46,0.00,,,0.00,,2013-01-23 04:53:00,